Time;durP1;ratioP1;P1;durP2;ratioP2;P2;SDS_P1;SDS_P2;PMS_P1;PMS_P2;Temp;Humidity;BMP_temperature;BMP_pressure;BME280_temperature;BME280_humidity;BME280_pressure;Samples;Min_cycle;Max_cycle;Signal;HPM_P1;HPM_P2
2022/06/15 00:00:45;;;;;;;4.40;4.00;;;;;;;14.43;100.00;96516.72;5032294;28;102071;-63
2022/06/15 00:03:13;;;;;;;5.13;4.20;;;;;;;14.31;100.00;96518.88;5032813;27;102364;-63
2022/06/15 00:05:43;;;;;;;8.40;4.57;;;;;;;14.21;100.00;96525.06;5032086;28;103010;-63
2022/06/15 00:08:11;;;;;;;5.00;4.13;;;;;;;14.05;100.00;96520.75;5033150;27;101734;-63
2022/06/15 00:10:40;;;;;;;5.40;3.93;;;;;;;13.95;100.00;96522.66;5032856;27;102453;-63
2022/06/15 00:13:08;;;;;;;4.30;3.90;;;;;;;14.03;100.00;96524.75;5032431;28;102843;-63
2022/06/15 00:15:35;;;;;;;4.57;3.60;;;;;;;14.03;100.00;96522.91;5031380;28;102111;-62
2022/06/15 00:18:04;;;;;;;5.30;4.40;;;;;;;14.08;100.00;96530.13;5035451;27;102322;-63
2022/06/15 00:20:31;;;;;;;5.60;4.30;;;;;;;14.11;100.00;96529.59;5032863;28;101719;-63
2022/06/15 00:23:00;;;;;;;6.77;3.80;;;;;;;13.91;100.00;96524.25;5032714;27;102785;-63
2022/06/15 00:25:27;;;;;;;5.80;4.13;;;;;;;13.91;100.00;96518.91;5031632;28;102578;-63
2022/06/15 00:27:54;;;;;;;4.50;4.00;;;;;;;13.74;100.00;96515.69;5031126;28;101992;-63
2022/06/15 00:30:21;;;;;;;4.57;3.90;;;;;;;13.76;100.00;96513.53;5032632;28;102346;-63
2022/06/15 00:32:49;;;;;;;4.27;3.80;;;;;;;13.72;100.00;96509.78;5030443;28;103784;-63
2022/06/15 00:35:18;;;;;;;4.30;3.90;;;;;;;13.49;100.00;96510.31;5032540;28;101803;-63
2022/06/15 00:37:45;;;;;;;4.00;3.70;;;;;;;13.39;100.00;96511.09;5031241;28;105599;-63
2022/06/15 00:40:14;;;;;;;4.17;3.50;;;;;;;13.50;100.00;96506.56;5032918;27;105829;-63
2022/06/15 00:42:42;;;;;;;4.90;4.43;;;;;;;13.55;100.00;96506.56;5030917;28;105193;-63
2022/06/15 00:45:10;;;;;;;6.27;4.67;;;;;;;13.60;100.00;96506.56;5030477;28;104175;-63
2022/06/15 00:47:40;;;;;;;5.20;4.30;;;;;;;13.64;100.00;96505.00;5030861;28;101940;-63
2022/06/15 00:50:11;;;;;;;4.47;4.00;;;;;;;13.21;100.00;96505.44;5030639;28;105652;-63
2022/06/15 00:52:45;;;;;;;5.93;4.43;;;;;;;12.93;100.00;96508.53;5030219;28;105627;-63
2022/06/15 00:55:19;;;;;;;4.23;3.83;;;;;;;12.83;100.00;96511.97;5030728;28;102059;-63
2022/06/15 00:57:46;;;;;;;4.80;3.90;;;;;;;12.95;100.00;96507.22;5030536;28;105104;-63
2022/06/15 01:00:14;;;;;;;5.80;4.03;;;;;;;12.98;100.00;96509.38;5029864;28;105178;-63
2022/06/15 01:02:43;;;;;;;4.43;4.03;;;;;;;12.99;100.00;96504.84;5034112;28;101927;-63
2022/06/15 01:05:15;;;;;;;4.53;3.80;;;;;;;12.82;100.00;96509.56;5030085;28;105344;-63
2022/06/15 01:08:03;;;;;;;4.70;3.87;;;;;;;12.95;100.00;96503.75;5030557;28;101920;-63
2022/06/15 01:10:47;;;;;;;5.40;4.90;;;;;;;12.98;100.00;96503.25;5013666;28;105675;-63
2022/06/15 01:13:30;;;;;;;5.13;4.63;;;;;;;12.90;100.00;96506.38;5031024;27;102742;-63
2022/06/15 01:16:04;;;;;;;5.53;5.03;;;;;;;12.99;100.00;96496.84;5030425;28;101912;-63
2022/06/15 01:18:40;;;;;;;4.80;4.20;;;;;;;12.87;100.00;96490.91;5030357;28;105502;-63
2022/06/15 01:21:22;;;;;;;4.50;4.10;;;;;;;12.71;100.00;96494.59;5031301;28;102721;-63
2022/06/15 01:24:16;;;;;;;4.93;4.43;;;;;;;12.84;100.00;96486.09;5033769;28;101812;-63
2022/06/15 01:27:17;;;;;;;4.53;4.13;;;;;;;12.66;100.00;96483.88;5029751;28;105281;-63
2022/06/15 01:30:28;;;;;;;4.90;4.33;;;;;;;12.51;100.00;96491.81;5030316;28;101859;-63
2022/06/15 01:33:07;;;;;;;5.57;4.80;;;;;;;12.38;100.00;96492.28;5031852;28;102592;-63
2022/06/15 01:35:43;;;;;;;5.10;4.53;;;;;;;12.49;100.00;96489.41;5029734;28;105752;-63
2022/06/15 01:38:22;;;;;;;6.37;5.20;;;;;;;12.65;100.00;96488.41;5029912;28;101873;-63
2022/06/15 01:40:57;;;;;;;4.90;4.47;;;;;;;12.59;100.00;96483.34;5030414;28;103674;-63
2022/06/15 01:43:28;;;;;;;4.73;4.33;;;;;;;12.57;100.00;96480.91;5029239;28;105500;-63
2022/06/15 01:46:00;;;;;;;5.33;4.73;;;;;;;12.46;100.00;96484.59;5031622;28;101774;-63
2022/06/15 01:48:28;;;;;;;4.90;4.30;;;;;;;12.38;100.00;96486.97;5032904;28;104801;-63
2022/06/15 01:51:03;;;;;;;5.70;3.93;;;;;;;12.18;100.00;96479.66;5029138;28;102309;-63
2022/06/15 01:53:37;;;;;;;4.87;4.37;;;;;;;12.07;100.00;96479.84;5029222;28;105120;-63
2022/06/15 01:56:10;;;;;;;8.60;4.40;;;;;;;12.08;100.00;96470.78;5030681;27;103078;-63
2022/06/15 01:58:42;;;;;;;5.30;4.63;;;;;;;11.94;100.00;96477.63;5012962;28;101826;-63
2022/06/15 02:01:17;;;;;;;5.33;4.60;;;;;;;11.91;100.00;96475.47;5029791;28;104843;-63
2022/06/15 02:03:50;;;;;;;4.67;3.97;;;;;;;11.98;100.00;96476.03;5029051;28;105184;-63
2022/06/15 02:06:26;;;;;;;6.33;4.77;;;;;;;12.19;100.00;96483.09;5029668;28;101904;-62
2022/06/15 02:08:59;;;;;;;5.20;4.70;;;;;;;12.33;100.00;96482.38;5031189;28;102941;-63
2022/06/15 02:11:32;;;;;;;7.17;4.73;;;;;;;12.41;100.00;96475.75;5032073;28;105648;-63
2022/06/15 02:14:07;;;;;;;5.53;4.93;;;;;;;12.41;100.00;96473.91;5029621;28;105152;-63
2022/06/15 02:16:41;;;;;;;5.90;4.93;;;;;;;12.47;100.00;96475.53;5028915;28;105136;-63
2022/06/15 02:19:16;;;;;;;4.83;4.43;;;;;;;12.49;100.00;96477.94;5029570;28;101820;-63
2022/06/15 02:21:47;;;;;;;5.87;4.87;;;;;;;12.31;100.00;96475.72;5029370;28;105109;-63
2022/06/15 02:24:17;;;;;;;5.37;4.80;;;;;;;12.35;100.00;96482.13;5030336;28;102563;-63
2022/06/15 02:26:45;;;;;;;6.67;5.13;;;;;;;12.31;100.00;96473.06;5029393;28;101822;-63
2022/06/15 02:29:17;;;;;;;5.87;4.50;;;;;;;11.88;100.00;96476.00;5029237;28;105181;-63
2022/06/15 02:31:51;;;;;;;4.50;4.10;;;;;;;11.86;100.00;96472.75;5028733;28;103863;-63
2022/06/15 02:34:18;;;;;;;4.93;4.50;;;;;;;11.76;100.00;96478.00;5034012;28;101868;-63
2022/06/15 02:36:46;;;;;;;4.60;4.20;;;;;;;11.87;100.00;96472.50;5028557;28;105709;-63
2022/06/15 02:39:16;;;;;;;4.33;3.93;;;;;;;11.90;100.00;96469.34;5029136;28;102001;-63
2022/06/15 02:41:44;;;;;;;5.13;4.60;;;;;;;11.87;100.00;96472.50;5029293;28;104490;-63
2022/06/15 02:44:16;;;;;;;5.53;4.40;;;;;;;11.90;100.00;96473.88;5029828;27;103027;-63
2022/06/15 02:46:52;;;;;;;5.17;4.67;;;;;;;11.90;100.00;96473.88;5029113;28;101938;-63
2022/06/15 02:49:19;;;;;;;6.27;5.37;;;;;;;11.82;100.00;96471.69;5029270;28;105599;-63
2022/06/15 02:51:54;;;;;;;5.03;4.30;;;;;;;11.74;100.00;96459.63;5029715;27;102514;-63
2022/06/15 02:54:28;;;;;;;4.57;4.17;;;;;;;11.84;100.00;96458.91;5028754;28;101909;-63
2022/06/15 02:57:02;;;;;;;5.60;5.00;;;;;;;11.85;100.00;96461.31;5031744;28;104527;-63
2022/06/15 02:59:30;;;;;;;6.17;5.57;;;;;;;11.69;100.00;96467.59;5028459;28;102460;-63
2022/06/15 03:02:00;;;;;;;5.60;5.00;;;;;;;11.78;100.00;96471.38;5029083;28;104904;-63
2022/06/15 03:04:28;;;;;;;4.37;3.97;;;;;;;11.79;100.00;96462.34;5027804;28;105144;-63
2022/06/15 03:06:57;;;;;;;5.17;4.70;;;;;;;11.73;100.00;96455.34;5028630;28;102207;-63
2022/06/15 03:09:24;;;;;;;5.40;4.63;;;;;;;11.62;100.00;96460.88;5028823;28;105563;-63
2022/06/15 03:11:53;;;;;;;5.10;4.60;;;;;;;11.72;100.00;96466.28;5028122;28;105049;-63
2022/06/15 03:14:33;;;;;;;6.07;5.47;;;;;;;11.62;100.00;96471.53;5028530;28;101884;-63
2022/06/15 03:17:03;;;;;;;5.80;5.20;;;;;;;11.79;100.00;96475.66;5028810;28;104610;-63
2022/06/15 03:19:54;;;;;;;5.13;4.70;;;;;;;11.81;100.00;96464.72;5026561;27;103536;-63
2022/06/15 03:22:21;;;;;;;6.07;5.47;;;;;;;11.92;100.00;96458.41;5028420;28;104615;-62
2022/06/15 03:24:52;;;;;;;5.33;4.80;;;;;;;11.91;100.00;96464.81;5028015;28;105208;-63
2022/06/15 03:27:20;;;;;;;5.93;5.27;;;;;;;11.75;100.00;96460.44;5028350;28;101807;-63
2022/06/15 03:29:50;;;;;;;5.20;4.70;;;;;;;11.70;100.00;96463.06;5028420;28;104887;-63
2022/06/15 03:32:21;;;;;;;5.43;4.93;;;;;;;11.63;100.00;96460.63;5027806;28;104894;-63
2022/06/15 03:34:57;;;;;;;5.93;4.50;;;;;;;11.45;100.00;96460.16;5028408;28;101866;-63
2022/06/15 03:37:24;;;;;;;5.80;4.97;;;;;;;11.60;100.00;96462.97;5028288;28;105178;-63
2022/06/15 03:39:56;;;;;;;5.60;5.10;;;;;;;11.53;100.00;96467.69;5031046;28;104459;-63
2022/06/15 03:42:27;;;;;;;5.63;4.43;;;;;;;11.58;100.00;96470.38;5028372;28;103606;-63
2022/06/15 03:44:56;;;;;;;5.00;4.50;;;;;;;11.57;100.00;96469.59;5027560;28;104920;-63
2022/06/15 03:47:34;;;;;;;5.57;4.80;;;;;;;11.66;100.00;96461.97;5028427;28;101932;-63
2022/06/15 03:50:01;;;;;;;5.40;4.50;;;;;;;11.82;100.00;96458.38;5029382;28;102341;-63
2022/06/15 03:52:29;;;;;;;5.27;4.77;;;;;;;11.90;100.00;96457.88;5027610;28;103889;-63
2022/06/15 03:54:56;;;;;;;4.80;4.30;;;;;;;11.95;100.00;96456.03;5028207;28;102133;-63
2022/06/15 03:57:23;;;;;;;5.80;5.20;;;;;;;12.03;100.00;96457.41;5028007;28;104869;-63
2022/06/15 03:59:53;;;;;;;6.73;5.13;;;;;;;12.11;100.00;96454.28;5026742;28;105357;-63
2022/06/15 04:02:52;;;;;;;5.17;4.70;;;;;;;12.19;100.00;96457.25;5033063;27;101983;-63
2022/06/15 04:05:43;;;;;;;6.03;4.60;;;;;;;12.19;100.00;96451.94;5028349;27;103585;-63
2022/06/15 04:14:16;;;;;;;5.23;4.70;;;;;;;12.25;100.00;96448.22;5027543;28;105632;-62
2022/06/15 04:16:53;;;;;;;5.07;4.67;;;;;;;12.46;100.00;96447.25;5031556;28;102107;-63
2022/06/15 04:19:24;;;;;;;4.63;4.23;;;;;;;12.60;100.00;96448.38;5031351;28;105049;-63
2022/06/15 04:21:53;;;;;;;6.77;5.50;;;;;;;12.80;100.00;96447.66;5030540;28;105269;-63
2022/06/15 04:24:21;;;;;;;5.80;4.97;;;;;;;12.97;100.00;96448.28;5031270;28;101974;-63
2022/06/15 04:26:51;;;;;;;7.00;5.37;;;;;;;13.17;100.00;96449.09;5035311;28;102301;-63
2022/06/15 04:29:22;;;;;;;5.40;4.90;;;;;;;13.31;100.00;96441.38;5031131;28;101871;-63
2022/06/15 04:31:50;;;;;;;5.60;5.10;;;;;;;13.47;100.00;96443.00;5031216;28;104835;-63
2022/06/15 04:34:19;;;;;;;5.77;5.23;;;;;;;13.63;100.00;96445.38;5030660;28;105496;-62
2022/06/15 04:36:49;;;;;;;5.30;4.80;;;;;;;13.77;100.00;96448.31;5030660;28;101903;-63
2022/06/15 04:39:16;;;;;;;6.53;5.30;;;;;;;13.92;100.00;96453.66;5030866;28;104826;-63
2022/06/15 04:41:46;;;;;;;6.13;5.60;;;;;;;14.04;100.00;96456.84;5030398;28;105592;-62
2022/06/15 04:44:14;;;;;;;7.30;5.83;;;;;;;13.97;100.00;96453.66;5030891;28;101903;-63
2022/06/15 04:46:45;;;;;;;6.10;5.50;;;;;;;14.12;100.00;96457.09;5030888;28;104845;-63
2022/06/15 04:49:14;;;;;;;6.17;5.67;;;;;;;14.19;100.00;96463.00;5033521;28;105302;-63
2022/06/15 04:51:55;;;;;;;6.40;5.80;;;;;;;14.26;100.00;96465.38;5030929;28;105242;-63
2022/06/15 04:54:23;;;;;;;6.60;5.70;;;;;;;14.26;100.00;96458.19;5030208;28;105169;-62
2022/06/15 04:56:54;;;;;;;6.83;6.10;;;;;;;14.14;100.00;96456.81;5030849;28;102936;-63
2022/06/15 04:59:21;;;;;;;6.73;6.03;;;;;;;14.26;100.00;96458.19;5030378;28;103806;-63
2022/06/15 05:01:51;;;;;;;7.23;5.87;;;;;;;14.38;100.00;96460.56;5029778;28;105201;-62
2022/06/15 05:04:20;;;;;;;6.50;5.90;;;;;;;14.53;100.00;96457.81;5030653;28;101933;-63
2022/06/15 05:06:47;;;;;;;6.50;5.90;;;;;;;14.63;100.00;96461.28;5030730;28;105903;-63
2022/06/15 05:09:16;;;;;;;7.03;5.90;;;;;;;14.59;100.00;96462.06;5030026;28;104148;-63
2022/06/15 05:11:48;;;;;;;7.90;6.20;;;;;;;14.68;100.00;96460.44;5033831;28;101868;-63
2022/06/15 05:14:16;;;;;;;5.93;5.33;;;;;;;14.82;100.00;96461.47;5029983;28;104352;-63
2022/06/15 05:16:46;;;;;;;6.40;5.73;;;;;;;14.90;100.00;96458.19;5030431;28;101822;-63
2022/06/15 05:19:17;;;;;;;6.53;5.60;;;;;;;15.11;100.00;96455.16;5030444;28;103477;-63
2022/06/15 05:21:46;;;;;;;7.77;5.27;;;;;;;15.26;100.00;96456.94;5029560;28;105429;-63
2022/06/15 05:24:18;;;;;;;7.20;5.33;;;;;;;15.38;100.00;96460.09;5014001;28;102052;-63
2022/06/15 05:26:50;;;;;;;6.33;5.23;;;;;;;15.66;100.00;96456.66;5030022;27;105617;-63
2022/06/15 05:29:17;;;;;;;9.47;5.63;;;;;;;15.48;100.00;96460.03;5029671;28;105219;-63
2022/06/15 05:31:48;;;;;;;6.67;5.13;;;;;;;15.64;100.00;96454.25;5030324;28;101865;-63
2022/06/15 05:34:16;;;;;;;6.23;5.07;;;;;;;15.93;100.00;96451.63;5032932;28;105241;-63
2022/06/15 05:36:43;;;;;;;6.23;4.80;;;;;;;16.07;100.00;96450.66;5030094;28;102135;-62
2022/06/15 05:39:12;;;;;;;5.20;4.73;;;;;;;16.43;100.00;96451.94;5030156;28;104994;-63
2022/06/15 05:41:44;;;;;;;9.30;4.60;;;;;;;16.82;100.00;96451.75;5029408;28;105514;-63
2022/06/15 05:44:16;;;;;;;5.97;5.13;;;;;;;16.91;100.00;96450.84;5029768;28;101888;-63
2022/06/15 05:46:45;;;;;;;6.57;4.73;;;;;;;16.99;100.00;96455.56;5030093;28;105085;-62
2022/06/15 05:49:24;;;;;;;5.13;4.30;;;;;;;17.18;100.00;96452.88;5029329;28;105471;-63
2022/06/15 05:51:52;;;;;;;5.30;4.23;;;;;;;17.24;100.00;96447.16;5029864;28;101891;-63
2022/06/15 05:54:19;;;;;;;5.07;4.57;;;;;;;17.44;100.00;96443.41;5032279;28;105309;-63
2022/06/15 05:56:48;;;;;;;4.60;4.10;;;;;;;17.57;100.00;96442.66;5031130;28;101893;-63
2022/06/15 05:59:15;;;;;;;5.23;4.30;;;;;;;17.67;100.00;96437.13;5029424;28;103635;-63
2022/06/15 06:01:43;;;;;;;6.23;4.00;;;;;;;17.64;100.00;96438.50;5028486;28;103810;-63
2022/06/15 06:04:13;;;;;;;3.90;3.53;;;;;;;17.70;100.00;96433.81;5029612;28;102085;-63
2022/06/15 06:06:45;;;;;;;7.23;4.23;;;;;;;17.72;100.00;96435.13;5029714;28;105942;-63
2022/06/15 06:09:12;;;;;;;4.30;3.77;;;;;;;17.66;100.00;96436.31;5029449;28;104278;-63
2022/06/15 06:11:39;;;;;;;4.83;3.30;;;;;;;17.80;100.00;96439.03;5031254;28;101923;-63
2022/06/15 06:14:08;;;;;;;3.80;3.50;;;;;;;17.74;100.00;96448.28;5030002;28;105721;-63
2022/06/15 06:17:16;;;;;;;4.10;3.40;;;;;;;17.99;100.00;96445.97;5032631;28;106439;-63
2022/06/15 06:20:06;;;;;;;4.00;3.27;;;;;;;18.37;100.00;96441.31;5029858;28;104936;-63
2022/06/15 06:22:33;;;;;;;5.63;3.90;;;;;;;18.36;100.00;96442.41;5030791;28;103222;-63
2022/06/15 06:25:23;;;;;;;5.07;3.80;;;;;;;18.04;100.00;96440.50;5029498;28;102158;-64
2022/06/15 06:27:50;;;;;;;5.43;3.67;;;;;;;18.35;100.00;96446.16;5029486;28;105097;-64
2022/06/15 06:30:21;;;;;;;5.40;3.73;;;;;;;18.71;100.00;96447.09;5029256;28;103191;-64
2022/06/15 06:32:48;;;;;;;5.67;3.80;;;;;;;19.07;100.00;96442.59;5029736;28;102067;-64
2022/06/15 06:35:22;;;;;;;5.47;3.70;;;;;;;19.47;100.00;96439.00;5029659;28;104329;-64
2022/06/15 06:37:49;;;;;;;5.23;3.90;;;;;;;19.38;100.00;96438.13;5029925;27;102872;-64
2022/06/15 06:40:18;;;;;;;4.50;3.73;;;;;;;18.96;100.00;96438.50;5032983;28;102011;-64
2022/06/15 06:42:45;;;;;;;6.67;4.00;;;;;;;18.94;100.00;96443.38;5028625;28;105164;-64
2022/06/15 06:45:23;;;;;;;5.50;3.83;;;;;;;18.43;100.00;96443.59;5029325;28;101939;-64
2022/06/15 06:47:50;;;;;;;8.70;4.10;;;;;;;17.93;100.00;96455.22;5009325;28;104697;-64
2022/06/15 06:50:18;;;;;;;4.20;3.50;;;;;;;18.20;100.00;96451.81;5008760;28;105622;-64
2022/06/15 06:52:45;;;;;;;4.50;3.67;;;;;;;18.14;100.00;96439.56;5009332;28;102026;-64
2022/06/15 06:55:12;;;;;;;5.30;4.07;;;;;;;18.10;100.00;96444.69;5009276;28;104916;-64
2022/06/15 06:57:39;;;;;;;5.37;3.67;;;;;;;18.34;100.00;96449.97;5008372;28;104107;-64
2022/06/15 07:00:07;;;;;;;8.40;4.20;;;;;;;18.35;100.00;96451.56;5008565;28;102007;-64
2022/06/15 07:02:36;;;;;;;6.87;4.43;;;;;;;18.01;100.00;96459.13;5011655;28;105070;-64
2022/06/15 07:05:13;;;;;;;5.13;4.30;;;;;;;18.15;100.00;96451.91;5042629;27;101981;-64
2022/06/15 07:07:40;;;;;;;3.87;3.53;;;;;;;18.01;100.00;96461.84;5008899;28;105219;-64
2022/06/15 07:10:08;;;;;;;5.90;4.30;;;;;;;18.12;100.00;96464.06;5008225;28;105414;-64
2022/06/15 07:12:36;;;;;;;5.07;3.73;;;;;;;18.11;100.00;96464.34;5008792;28;102041;-64
2022/06/15 07:18:58;;;;;;;6.43;4.10;;;;;;;18.35;100.00;96459.63;5006487;28;102264;-64
2022/06/15 07:21:28;;;;;;;4.23;3.83;;;;;;;18.59;100.00;96465.66;5010110;28;101806;-64
2022/06/15 07:23:58;;;;;;;4.97;4.00;;;;;;;19.07;100.00;96464.94;4992079;28;105982;-64
2022/06/15 07:26:42;;;;;;;4.60;3.87;;;;;;;19.16;100.00;96456.91;5011497;28;104926;-64
2022/06/15 07:29:10;;;;;;;5.13;4.00;;;;;;;19.50;100.00;96451.91;5008747;28;103864;-64
2022/06/15 07:31:40;;;;;;;5.23;4.20;;;;;;;19.34;100.00;96458.72;5008013;28;105537;-64
2022/06/15 07:34:10;;;;;;;5.83;4.23;;;;;;;19.54;100.00;96456.38;5008720;28;102054;-64
2022/06/15 07:37:16;;;;;;;5.50;4.17;;;;;;;20.02;100.00;96461.97;5009860;28;102901;-64
2022/06/15 07:39:43;;;;;;;6.33;4.17;;;;;;;20.28;100.00;96460.25;5011259;28;106051;-64
2022/06/15 07:42:11;;;;;;;4.70;3.97;;;;;;;20.41;100.00;96448.53;5028734;28;101880;-64
2022/06/15 07:44:40;;;;;;;6.10;3.80;;;;;;;20.39;100.00;96453.47;5028438;28;105691;-64
2022/06/15 07:50:01;;;;;;;4.40;4.00;;;;;;;20.54;100.00;96450.38;5034103;27;101660;-64
2022/06/15 07:52:33;;;;;;;4.33;3.47;;;;;;;21.11;100.00;96457.41;5048281;27;105881;-64
2022/06/15 07:55:24;;;;;;;3.77;3.47;;;;;;;21.67;100.00;96452.69;5063983;27;102051;-64
2022/06/15 07:57:52;;;;;;;6.40;4.10;;;;;;;21.28;100.00;96454.75;5033123;28;102387;-64
2022/06/15 08:00:20;;;;;;;4.67;3.87;;;;;;;21.73;100.00;96450.66;5029891;28;105679;-64
2022/06/15 08:02:48;;;;;;;5.17;3.93;;;;;;;21.80;100.00;96449.06;5032162;28;101913;-64
2022/06/15 08:05:50;;;;;;;4.53;3.43;;;;;;;22.11;100.00;96446.94;5031965;28;105210;-64
2022/06/15 08:08:20;;;;;;;3.70;3.30;;;;;;;22.47;100.00;96454.69;5031524;28;105767;-64
2022/06/15 08:10:48;;;;;;;3.83;3.23;;;;;;;22.56;100.00;96445.41;5069373;27;101834;-64
2022/06/15 08:13:16;;;;;;;7.20;3.80;;;;;;;22.85;100.00;96447.38;5031215;28;103803;-64
2022/06/15 08:16:15;;;;;;;4.40;3.77;;;;;;;23.06;100.00;96448.22;5031970;28;101974;-64
2022/06/15 08:18:52;;;;;;;4.37;3.40;;;;;;;23.13;100.00;96448.50;5033004;28;104446;-63
2022/06/15 08:21:26;;;;;;;5.53;3.60;;;;;;;23.18;100.00;96449.16;5031021;28;105419;-64
2022/06/15 08:23:55;;;;;;;8.20;3.80;;;;;;;23.13;100.00;96448.50;5031472;28;102050;-64
2022/06/15 08:26:57;;;;;;;5.47;3.60;;;;;;;23.37;100.00;96440.56;5031548;28;105248;-64
2022/06/15 08:29:24;;;;;;;5.87;3.50;;;;;;;23.61;100.00;96440.69;5030579;28;105137;-64
2022/06/15 08:31:56;;;;;;;4.23;3.50;;;;;;;23.74;100.00;96445.06;5032497;28;101854;-64
2022/06/15 08:34:24;;;;;;;4.00;3.53;;;;;;;23.86;100.00;96437.75;5033948;28;104411;-64
2022/06/15 08:36:53;;;;;;;7.70;3.67;;;;;;;24.09;100.00;96441.72;5065114;27;101949;-70
2022/06/15 08:39:20;;;;;;;7.00;3.20;;;;;;;24.42;100.00;96433.56;5030126;28;104122;-64
2022/06/15 08:41:56;;;;;;;6.37;3.27;;;;;;;24.07;100.00;96433.13;5029742;28;105552;-63
2022/06/15 08:44:34;;;;;;;4.60;3.33;;;;;;;24.53;100.00;96435.47;5029085;28;101918;-64
2022/06/15 08:47:11;;;;;;;5.43;2.90;;;;;;;24.58;100.00;96438.03;5054252;27;105415;-64
2022/06/15 08:49:49;;;;;;;4.97;3.10;;;;;;;24.32;100.00;96440.22;5024958;28;106000;-64
2022/06/15 08:52:24;;;;;;;3.17;2.87;;;;;;;24.30;100.00;96441.69;5028170;28;102028;-69
2022/06/15 08:54:57;;;;;;;3.90;3.10;;;;;;;24.47;100.00;96444.22;5013967;28;105997;-64
2022/06/15 08:57:35;;;;;;;4.70;2.80;;;;;;;24.31;100.00;96435.91;5033166;28;104205;-64
2022/06/15 09:00:10;;;;;;;4.13;3.20;;;;;;;24.53;100.00;96435.47;5027940;27;103637;-64
2022/06/15 09:02:42;;;;;;;6.40;3.10;;;;;;;24.44;100.00;96437.53;5026960;28;105782;-64
2022/06/15 09:05:18;;;;;;;4.27;3.00;;;;;;;25.00;100.00;96433.97;5031576;27;101875;-65
2022/06/15 09:08:07;;;;;;;5.30;3.13;;;;;;;25.52;100.00;96436.78;5031620;28;103095;-63
2022/06/15 09:10:46;;;;;;;5.20;2.73;;;;;;;25.60;100.00;96428.47;5029300;28;105681;-63
2022/06/15 09:13:31;;;;;;;3.43;2.77;;;;;;;25.93;100.00;96433.75;5031518;28;101851;-74
2022/06/15 09:16:08;;;;;;;3.13;2.50;;;;;;;25.91;96.42;96438.72;5030569;28;104009;-67
2022/06/15 09:22:03;;;;;;;2.53;2.30;;;;;;;25.79;93.13;96430.56;5035066;27;102249;-63
2022/06/15 09:24:47;;;;;;;2.50;2.27;;;;;;;26.19;100.00;96426.69;5031527;28;102668;-63
2022/06/15 09:27:22;;;;;;;3.33;2.60;;;;;;;26.38;99.71;96428.75;5032117;27;101817;-63
2022/06/15 09:29:56;;;;;;;2.10;2.00;;;;;;;26.63;97.35;96430.19;5032078;27;102332;-63
2022/06/15 09:32:26;;;;;;;2.47;2.27;;;;;;;26.68;87.47;96428.00;5030098;28;105368;-63
2022/06/15 09:35:08;;;;;;;2.73;2.27;;;;;;;26.57;99.29;96420.69;5030346;28;101869;-63
2022/06/15 09:37:40;;;;;;;2.97;2.33;;;;;;;26.98;94.96;96425.63;5031824;28;103494;-63
2022/06/15 09:40:11;;;;;;;2.47;2.03;;;;;;;26.98;82.67;96425.63;5029672;28;103543;-63
2022/06/15 09:42:49;;;;;;;3.80;2.20;;;;;;;27.37;85.33;96427.34;5030175;28;101909;-63
2022/06/15 09:45:36;;;;;;;3.47;2.10;;;;;;;27.40;80.02;96426.63;5033239;28;104970;-63
2022/06/15 09:48:20;;;;;;;2.70;2.33;;;;;;;27.45;82.62;96424.41;5030176;28;101923;-63
2022/06/15 09:50:54;;;;;;;3.00;2.23;;;;;;;27.75;70.29;96427.38;5030109;28;104990;-63
2022/06/15 09:53:37;;;;;;;3.33;2.10;;;;;;;28.03;70.58;96419.78;5031152;28;102593;-63
2022/06/15 09:56:24;;;;;;;4.27;2.10;;;;;;;28.06;83.64;96422.59;5031351;28;102068;-63
2022/06/15 09:58:55;;;;;;;4.37;2.40;;;;;;;28.12;84.44;96420.38;5031384;28;102889;-63
2022/06/15 10:01:25;;;;;;;2.60;2.00;;;;;;;28.30;66.66;96416.03;5030595;28;102710;-63
2022/06/15 10:03:55;;;;;;;2.30;2.10;;;;;;;28.30;81.15;96414.09;5031324;27;101960;-63
2022/06/15 10:09:51;;;;;;;3.67;1.90;;;;;;;28.84;67.06;96409.22;5034181;27;102025;-63
2022/06/15 10:12:58;;;;;;;2.25;1.92;;;;;;;28.90;65.30;96417.88;5030272;28;102375;-63
2022/06/15 10:15:50;;;;;;;2.47;2.10;;;;;;;28.94;63.16;96403.09;5030479;27;103587;-63
2022/06/15 10:19:19;;;;;;;2.70;1.77;;;;;;;29.38;65.78;96414.38;5031210;28;101845;-63
2022/06/15 10:21:53;;;;;;;3.00;2.20;;;;;;;29.83;60.41;96401.31;5030890;28;102393;-63
2022/06/15 10:24:25;;;;;;;2.70;1.90;;;;;;;29.32;52.69;96402.16;5030722;28;102782;-63
2022/06/15 10:26:54;;;;;;;2.45;1.80;;;;;;;29.56;60.20;96398.97;5031019;28;101851;-63
2022/06/15 10:29:27;;;;;;;3.30;1.80;;;;;;;29.54;61.69;96399.34;5030833;28;102605;-63
2022/06/15 10:32:18;;;;;;;2.70;1.92;;;;;;;29.70;57.75;96397.22;5032544;28;103320;-63
2022/06/15 10:38:41;;;;;;;3.10;2.13;;;;;;;30.17;54.02;96402.91;5026978;28;102229;-63
2022/06/15 10:43:51;;;;;;;2.33;1.92;;;;;;;30.06;49.51;96392.94;5030547;28;102531;-63
2022/06/15 10:46:22;;;;;;;2.67;1.95;;;;;;;30.28;52.22;96389.28;5028681;28;103925;-63
2022/06/15 10:49:43;;;;;;;3.70;1.60;;;;;;;30.39;50.82;96391.00;5030955;27;101669;-63
2022/06/15 10:52:23;;;;;;;3.33;1.60;;;;;;;30.78;48.50;96385.91;5030883;28;102871;-63
2022/06/15 11:03:40;;;;;;;2.05;1.85;;;;;;;30.86;46.03;96388.31;5030763;27;101876;-64
2022/06/15 11:06:50;;;;;;;1.60;1.50;;;;;;;31.39;46.34;96389.50;5030623;27;102343;-64
2022/06/15 11:09:24;;;;;;;1.65;1.50;;;;;;;31.16;45.84;96382.66;5030013;28;102625;-64
2022/06/15 11:11:52;;;;;;;2.10;1.58;;;;;;;30.86;41.06;96388.31;5030952;28;101641;-64
2022/06/15 11:14:25;;;;;;;1.83;1.73;;;;;;;30.07;43.58;96378.09;5030380;28;102378;-64
2022/06/15 11:19:52;;;;;;;2.38;1.73;;;;;;;30.00;41.54;96384.28;5028984;28;101890;-64
2022/06/15 11:22:22;;;;;;;1.48;1.38;;;;;;;30.81;45.86;96387.88;5031427;28;104793;-64
2022/06/15 11:28:21;;;;;;;2.15;1.80;;;;;;;30.76;52.77;96367.06;5032480;28;105370;-64
2022/06/15 11:30:55;;;;;;;3.28;1.58;;;;;;;31.23;46.28;96372.50;5032967;27;104343;-64
2022/06/15 11:33:30;;;;;;;1.98;1.80;;;;;;;30.81;46.67;96371.41;5033865;28;101683;-64
2022/06/15 11:36:34;;;;;;;2.53;1.95;;;;;;;30.38;41.05;96363.91;5034023;27;102314;-64
2022/06/15 11:39:11;;;;;;;2.88;1.90;;;;;;;29.99;41.78;96368.97;5032817;27;104697;-64
2022/06/15 11:41:44;;;;;;;2.13;1.70;;;;;;;29.77;42.11;96358.13;5033733;27;101675;-64
2022/06/15 11:44:17;;;;;;;2.35;1.70;;;;;;;30.71;46.60;96358.38;5032109;28;103672;-64
2022/06/15 11:47:04;;;;;;;1.98;1.40;;;;;;;31.60;44.08;96370.38;5036642;28;102720;-64
2022/06/15 11:53:02;;;;;;;1.63;1.50;;;;;;;30.27;41.82;96352.03;5032919;27;103047;-64
2022/06/15 11:55:52;;;;;;;1.83;1.42;;;;;;;31.09;41.48;96360.63;5031814;28;101993;-64
2022/06/15 11:58:34;;;;;;;1.73;1.55;;;;;;;31.50;42.35;96357.34;5033477;27;102551;-64
2022/06/15 12:01:10;;;;;;;1.63;1.38;;;;;;;30.17;40.76;96349.97;5032490;27;102694;-64
2022/06/15 12:04:01;;;;;;;2.35;1.63;;;;;;;29.80;41.36;96357.41;5031731;28;101906;-64
2022/06/15 12:06:55;;;;;;;1.75;1.65;;;;;;;29.33;43.99;96357.16;5033357;28;102379;-64
2022/06/15 12:09:35;;;;;;;3.03;1.92;;;;;;;29.66;48.99;96351.72;5032709;28;102631;-64
2022/06/15 12:15:30;;;;;;;4.00;2.20;;;;;;;29.48;42.73;96350.69;5031201;28;105722;-64
2022/06/15 12:18:39;;;;;;;2.97;1.88;;;;;;;29.60;41.87;96347.75;5031733;28;101925;-62
2022/06/15 12:21:15;;;;;;;1.77;1.60;;;;;;;30.25;42.22;96354.41;5031705;28;105232;-62
2022/06/15 12:23:47;;;;;;;3.08;2.03;;;;;;;29.72;43.27;96356.53;5031035;28;102928;-62
2022/06/15 12:26:40;;;;;;;3.30;1.80;;;;;;;29.34;43.12;96355.97;5031516;28;101738;-62
2022/06/15 12:29:16;;;;;;;2.05;1.70;;;;;;;29.97;42.26;96351.31;5031491;28;105100;-62
2022/06/15 12:31:54;;;;;;;2.13;1.80;;;;;;;31.12;44.53;96346.91;5030857;28;105156;-62
2022/06/15 12:35:14;;;;;;;2.83;1.98;;;;;;;31.75;42.81;96339.03;5034813;28;102283;-62
2022/06/15 12:37:50;;;;;;;2.67;1.58;;;;;;;30.70;40.87;96334.81;5030521;28;106851;-62
2022/06/15 12:40:25;;;;;;;2.55;1.92;;;;;;;31.04;41.57;96333.50;5033253;27;101765;-62